Sand Key, FL current weather conditions

sailwx.info

Wind from 350 at 14 knots gusting 17

Air temperature 23.9° C
Dewpoint 14.1° C

Last reported at 2016-May-05 22:50 UTC.
Time now 2016-May-05 23:47 UTC

Location: N 24°28' W 081°53'.
View on Google Maps.

See reports from other nearby stations

  
Tides and Currents Weather Stations Pressure Air Temp Water Temp Dewpoint Dewpoint Depression Visibility Wind Speed Wind Dir Waves Ship Positions
date/time (UTC)wind fromknots sea level pressurealtimeterstation pressurevisibilityair tempwater tempwave heightnotes
2016-May-05 22:50 350 14 gusting 17 23.9
2016-May-05 21:50 360 15 gusting 17 23.9
2016-May-05 20:50 350 13 gusting 17 23.7
2016-May-05 19:50 350 16 gusting 19 23.5
2016-May-05 18:50 350 16 gusting 20 23.5
2016-May-05 17:50 350 16 gusting 18 23.6
2016-May-05 16:50 350 17 gusting 20 23.9
2016-May-05 15:50 350 18 gusting 20 24.0
2016-May-05 14:50 340 15 gusting 18 23.8
2016-May-05 13:50 350 18 gusting 20 23.7
2016-May-05 12:50 350 19 gusting 22 23.6
2016-May-05 11:50 350 18 gusting 23 24.0
2016-May-05 10:50 350 20 gusting 23 24.2
2016-May-05 09:50 340 22 gusting 27 24.4
2016-May-05 08:50 330 22 gusting 26 24.8
2016-May-05 07:50 340 22 gusting 25 24.7
2016-May-05 06:50 340 20 gusting 25 24.9
2016-May-05 05:50 340 20 gusting 23 25.0
2016-May-05 04:50 290 20 gusting 29 24.2
2016-May-05 03:50 250 26 gusting 30 25.8
2016-May-05 02:50 230 25 gusting 29 26.1
2016-May-05 01:50 240 19 gusting 23 24.9
2016-May-05 00:50 230 22 gusting 25 24.2
2016-May-04 22:50 240 20 gusting 24 24.2
2016-May-04 21:50 270 19 gusting 25 26.3
2016-May-04 20:50 270 15 gusting 17 26.8
2016-May-04 19:50 230 17 gusting 20 27.0
2016-May-04 18:50 360 26.9
2016-May-04 17:50 230 12 gusting 14 27.0
2016-May-04 16:50 220 13 gusting 16 27.0
2016-May-04 15:50 220 15 gusting 17 27.0
2016-May-04 14:50 220 16 gusting 18 27.0
2016-May-04 13:50 200 15 gusting 19 26.9
2016-May-04 12:50 200 16 gusting 19 26.9
2016-May-04 11:50 200 15 gusting 18 26.8
2016-May-04 10:50 200 11 gusting 13 26.8
2016-May-04 09:50 200 6 gusting 7 26.5
2016-May-04 08:50 200 3 gusting 4 26.2
2016-May-04 07:50 210 8 gusting 10 25.9
2016-May-04 06:50 200 10 gusting 12 26.4
2016-May-04 05:50 180 12 gusting 14 26.5
2016-May-04 04:50 080 3 gusting 4 26.4
2016-May-04 03:50 050 3 gusting 4 26.8
2016-May-04 02:50 030 5 gusting 6 26.7
2016-May-04 01:50 360 12 gusting 13 26.8
2016-May-04 00:50 350 11 gusting 12 27.0